sensor_id;sensor_type;location;lat;lon;timestamp;temperature;humidity
35796;DHT22;21916;52.428;13.302;2024-03-06T00:01:53;2.70;99.90
35796;DHT22;21916;52.428;13.302;2024-03-06T00:04:19;2.70;99.90
35796;DHT22;21916;52.428;13.302;2024-03-06T00:06:45;2.50;99.90
35796;DHT22;21916;52.428;13.302;2024-03-06T00:09:10;2.40;99.90
35796;DHT22;21916;52.428;13.302;2024-03-06T00:11:37;2.40;99.90
35796;DHT22;21916;52.428;13.302;2024-03-06T00:14:03;2.40;99.90
35796;DHT22;21916;52.428;13.302;2024-03-06T00:16:31;2.40;99.90
35796;DHT22;21916;52.428;13.302;2024-03-06T00:18:57;2.40;99.90
35796;DHT22;21916;52.428;13.302;2024-03-06T00:21:22;2.40;99.90
35796;DHT22;21916;52.428;13.302;2024-03-06T00:23:48;2.50;99.90
35796;DHT22;21916;52.428;13.302;2024-03-06T00:26:13;2.40;99.90
35796;DHT22;21916;52.428;13.302;2024-03-06T00:28:39;2.70;99.90
35796;DHT22;21916;52.428;13.302;2024-03-06T00:31:05;2.80;99.90
35796;DHT22;21916;52.428;13.302;2024-03-06T00:33:31;2.70;99.90
35796;DHT22;21916;52.428;13.302;2024-03-06T00:35:57;2.60;99.90
35796;DHT22;21916;52.428;13.302;2024-03-06T00:38:23;2.40;99.90
35796;DHT22;21916;52.428;13.302;2024-03-06T00:40:48;2.20;99.90
35796;DHT22;21916;52.428;13.302;2024-03-06T00:43:14;2.40;99.90
35796;DHT22;21916;52.428;13.302;2024-03-06T00:45:40;2.40;99.90
35796;DHT22;21916;52.428;13.302;2024-03-06T00:48:08;2.50;99.90
35796;DHT22;21916;52.428;13.302;2024-03-06T00:50:34;2.60;99.90
35796;DHT22;21916;52.428;13.302;2024-03-06T00:53:01;2.60;99.90
35796;DHT22;21916;52.428;13.302;2024-03-06T00:55:26;2.60;99.90
35796;DHT22;21916;52.428;13.302;2024-03-06T00:57:52;2.50;99.90
35796;DHT22;21916;52.428;13.302;2024-03-06T01:00:19;2.50;99.90
35796;DHT22;21916;52.428;13.302;2024-03-06T01:02:44;2.50;99.90
35796;DHT22;21916;52.428;13.302;2024-03-06T01:05:10;2.40;99.90
35796;DHT22;21916;52.428;13.302;2024-03-06T01:07:39;2.30;99.90
35796;DHT22;21916;52.428;13.302;2024-03-06T01:10:06;2.10;99.90
35796;DHT22;21916;52.428;13.302;2024-03-06T01:12:33;2.00;99.90
35796;DHT22;21916;52.428;13.302;2024-03-06T01:14:58;2.10;99.90
35796;DHT22;21916;52.428;13.302;2024-03-06T01:17:25;1.90;99.90
35796;DHT22;21916;52.428;13.302;2024-03-06T01:19:51;1.90;99.90
35796;DHT22;21916;52.428;13.302;2024-03-06T01:22:17;1.80;99.90
35796;DHT22;21916;52.428;13.302;2024-03-06T01:24:42;1.80;99.90
35796;DHT22;21916;52.428;13.302;2024-03-06T01:27:08;1.80;99.90
35796;DHT22;21916;52.428;13.302;2024-03-06T01:29:34;1.80;99.90
35796;DHT22;21916;52.428;13.302;2024-03-06T01:32:01;1.70;99.90
35796;DHT22;21916;52.428;13.302;2024-03-06T01:34:27;1.80;99.90
35796;DHT22;21916;52.428;13.302;2024-03-06T01:36:53;1.70;99.90
35796;DHT22;21916;52.428;13.302;2024-03-06T01:39:19;1.70;99.90
35796;DHT22;21916;52.428;13.302;2024-03-06T01:41:49;1.80;99.90
35796;DHT22;21916;52.428;13.302;2024-03-06T01:44:16;1.80;99.90
35796;DHT22;21916;52.428;13.302;2024-03-06T01:46:43;1.80;99.90
35796;DHT22;21916;52.428;13.302;2024-03-06T01:49:11;1.80;99.90
35796;DHT22;21916;52.428;13.302;2024-03-06T01:51:40;1.70;99.90
35796;DHT22;21916;52.428;13.302;2024-03-06T01:54:06;1.80;99.90
35796;DHT22;21916;52.428;13.302;2024-03-06T01:56:34;1.80;99.90
35796;DHT22;21916;52.428;13.302;2024-03-06T01:59:01;1.90;99.90
35796;DHT22;21916;52.428;13.302;2024-03-06T02:01:28;1.80;99.90
35796;DHT22;21916;52.428;13.302;2024-03-06T02:03:54;1.80;99.90
35796;DHT22;21916;52.428;13.302;2024-03-06T02:06:21;1.80;99.90
35796;DHT22;21916;52.428;13.302;2024-03-06T02:08:47;1.80;99.90
35796;DHT22;21916;52.428;13.302;2024-03-06T02:11:13;1.80;99.90
35796;DHT22;21916;52.428;13.302;2024-03-06T02:13:39;1.90;99.90
35796;DHT22;21916;52.428;13.302;2024-03-06T02:16:06;1.80;99.90
35796;DHT22;21916;52.428;13.302;2024-03-06T02:18:31;1.70;99.90
35796;DHT22;21916;52.428;13.302;2024-03-06T02:20:57;1.70;99.90
35796;DHT22;21916;52.428;13.302;2024-03-06T02:23:23;1.70;99.90
35796;DHT22;21916;52.428;13.302;2024-03-06T02:25:49;1.60;99.90
35796;DHT22;21916;52.428;13.302;2024-03-06T02:28:16;1.70;99.90
35796;DHT22;21916;52.428;13.302;2024-03-06T02:30:43;1.80;99.90
35796;DHT22;21916;52.428;13.302;2024-03-06T02:33:09;1.70;99.90
35796;DHT22;21916;52.428;13.302;2024-03-06T02:35:36;1.80;99.90
35796;DHT22;21916;52.428;13.302;2024-03-06T02:38:03;2.10;99.90
35796;DHT22;21916;52.428;13.302;2024-03-06T02:40:33;2.00;99.90
35796;DHT22;21916;52.428;13.302;2024-03-06T02:43:01;1.80;99.90
35796;DHT22;21916;52.428;13.302;2024-03-06T02:45:27;1.70;99.90
35796;DHT22;21916;52.428;13.302;2024-03-06T02:47:53;1.60;99.90
35796;DHT22;21916;52.428;13.302;2024-03-06T02:50:28;1.60;99.90
35796;DHT22;21916;52.428;13.302;2024-03-06T02:52:55;1.60;99.90
35796;DHT22;21916;52.428;13.302;2024-03-06T02:55:22;1.50;99.90
35796;DHT22;21916;52.428;13.302;2024-03-06T02:57:49;1.60;99.90
35796;DHT22;21916;52.428;13.302;2024-03-06T03:00:15;1.50;99.90
35796;DHT22;21916;52.428;13.302;2024-03-06T03:02:41;1.60;99.90
35796;DHT22;21916;52.428;13.302;2024-03-06T03:05:08;1.60;99.90
35796;DHT22;21916;52.428;13.302;2024-03-06T03:07:35;1.50;99.90
35796;DHT22;21916;52.428;13.302;2024-03-06T03:10:01;1.50;99.90
35796;DHT22;21916;52.428;13.302;2024-03-06T03:12:26;1.50;99.90
35796;DHT22;21916;52.428;13.302;2024-03-06T03:14:52;1.40;99.90
35796;DHT22;21916;52.428;13.302;2024-03-06T03:17:18;1.40;99.90
35796;DHT22;21916;52.428;13.302;2024-03-06T03:19:46;1.40;99.90
35796;DHT22;21916;52.428;13.302;2024-03-06T03:22:12;1.40;99.90
35796;DHT22;21916;52.428;13.302;2024-03-06T03:24:41;1.50;99.90
35796;DHT22;21916;52.428;13.302;2024-03-06T03:27:07;1.50;99.90
35796;DHT22;21916;52.428;13.302;2024-03-06T03:29:33;1.50;99.90
35796;DHT22;21916;52.428;13.302;2024-03-06T03:31:58;1.50;99.90
35796;DHT22;21916;52.428;13.302;2024-03-06T03:34:24;1.50;99.90
35796;DHT22;21916;52.428;13.302;2024-03-06T03:36:50;1.50;99.90
35796;DHT22;21916;52.428;13.302;2024-03-06T03:39:17;1.50;99.90
35796;DHT22;21916;52.428;13.302;2024-03-06T03:41:46;1.50;99.90
35796;DHT22;21916;52.428;13.302;2024-03-06T03:44:16;1.60;99.90
35796;DHT22;21916;52.428;13.302;2024-03-06T03:46:43;1.50;99.90
35796;DHT22;21916;52.428;13.302;2024-03-06T03:49:09;1.50;99.90
35796;DHT22;21916;52.428;13.302;2024-03-06T03:51:35;1.50;99.90
35796;DHT22;21916;52.428;13.302;2024-03-06T03:54:02;1.40;99.90
35796;DHT22;21916;52.428;13.302;2024-03-06T03:56:27;1.30;99.90
35796;DHT22;21916;52.428;13.302;2024-03-06T03:58:53;1.30;99.90
35796;DHT22;21916;52.428;13.302;2024-03-06T04:01:19;1.30;99.90
35796;DHT22;21916;52.428;13.302;2024-03-06T04:03:44;1.30;99.90
35796;DHT22;21916;52.428;13.302;2024-03-06T04:06:11;1.30;99.90
35796;DHT22;21916;52.428;13.302;2024-03-06T04:08:36;1.30;99.90
35796;DHT22;21916;52.428;13.302;2024-03-06T04:11:04;1.30;99.90
35796;DHT22;21916;52.428;13.302;2024-03-06T04:13:29;1.30;99.90
35796;DHT22;21916;52.428;13.302;2024-03-06T04:15:55;1.30;99.90
35796;DHT22;21916;52.428;13.302;2024-03-06T04:18:21;1.30;99.90
35796;DHT22;21916;52.428;13.302;2024-03-06T04:20:47;1.20;99.90
35796;DHT22;21916;52.428;13.302;2024-03-06T04:23:12;1.20;99.90
35796;DHT22;21916;52.428;13.302;2024-03-06T04:25:38;1.30;99.90
35796;DHT22;21916;52.428;13.302;2024-03-06T04:28:07;1.30;99.90
35796;DHT22;21916;52.428;13.302;2024-03-06T04:30:35;1.40;99.90
35796;DHT22;21916;52.428;13.302;2024-03-06T04:33:01;1.30;99.90
35796;DHT22;21916;52.428;13.302;2024-03-06T04:35:26;1.20;99.90
35796;DHT22;21916;52.428;13.302;2024-03-06T04:37:52;1.20;99.90
35796;DHT22;21916;52.428;13.302;2024-03-06T04:40:18;1.30;99.90
35796;DHT22;21916;52.428;13.302;2024-03-06T04:42:46;1.30;99.90
35796;DHT22;21916;52.428;13.302;2024-03-06T04:45:16;1.30;99.90
35796;DHT22;21916;52.428;13.302;2024-03-06T04:47:42;1.30;99.90
35796;DHT22;21916;52.428;13.302;2024-03-06T04:50:12;1.30;99.90
35796;DHT22;21916;52.428;13.302;2024-03-06T04:52:40;1.60;99.90
35796;DHT22;21916;52.428;13.302;2024-03-06T04:55:07;1.70;99.90
35796;DHT22;21916;52.428;13.302;2024-03-06T04:57:34;1.70;99.90
35796;DHT22;21916;52.428;13.302;2024-03-06T05:00:00;1.50;99.90
35796;DHT22;21916;52.428;13.302;2024-03-06T05:02:28;1.30;99.90
35796;DHT22;21916;52.428;13.302;2024-03-06T05:04:53;1.40;99.90
35796;DHT22;21916;52.428;13.302;2024-03-06T05:07:20;1.70;99.90
35796;DHT22;21916;52.428;13.302;2024-03-06T05:09:46;1.60;99.90
35796;DHT22;21916;52.428;13.302;2024-03-06T05:12:12;1.40;99.90
35796;DHT22;21916;52.428;13.302;2024-03-06T05:14:37;1.20;99.90
35796;DHT22;21916;52.428;13.302;2024-03-06T05:17:03;1.20;99.90
35796;DHT22;21916;52.428;13.302;2024-03-06T05:19:29;1.30;99.90
35796;DHT22;21916;52.428;13.302;2024-03-06T05:21:58;1.50;99.90
35796;DHT22;21916;52.428;13.302;2024-03-06T05:24:24;1.40;99.90
35796;DHT22;21916;52.428;13.302;2024-03-06T05:26:50;1.30;99.90
35796;DHT22;21916;52.428;13.302;2024-03-06T05:29:16;1.10;99.90
35796;DHT22;21916;52.428;13.302;2024-03-06T05:31:42;1.10;99.90
35796;DHT22;21916;52.428;13.302;2024-03-06T05:34:07;1.00;99.90
35796;DHT22;21916;52.428;13.302;2024-03-06T05:36:33;1.00;99.90
35796;DHT22;21916;52.428;13.302;2024-03-06T05:38:59;0.90;99.90
35796;DHT22;21916;52.428;13.302;2024-03-06T05:41:24;1.00;99.90
35796;DHT22;21916;52.428;13.302;2024-03-06T05:43:50;0.90;99.90
35796;DHT22;21916;52.428;13.302;2024-03-06T05:46:16;1.00;99.90
35796;DHT22;21916;52.428;13.302;2024-03-06T05:48:42;1.00;99.90
35796;DHT22;21916;52.428;13.302;2024-03-06T05:51:07;1.00;99.90
35796;DHT22;21916;52.428;13.302;2024-03-06T05:53:37;1.10;99.90
35796;DHT22;21916;52.428;13.302;2024-03-06T05:56:06;1.10;99.90
35796;DHT22;21916;52.428;13.302;2024-03-06T05:58:32;1.10;99.90
35796;DHT22;21916;52.428;13.302;2024-03-06T06:01:00;1.10;99.90
35796;DHT22;21916;52.428;13.302;2024-03-06T06:03:27;1.10;99.90
35796;DHT22;21916;52.428;13.302;2024-03-06T06:05:54;1.10;99.90
35796;DHT22;21916;52.428;13.302;2024-03-06T06:08:19;1.10;99.90
35796;DHT22;21916;52.428;13.302;2024-03-06T06:10:45;1.20;99.90
35796;DHT22;21916;52.428;13.302;2024-03-06T06:13:11;1.20;99.90
35796;DHT22;21916;52.428;13.302;2024-03-06T06:15:37;1.30;99.90
35796;DHT22;21916;52.428;13.302;2024-03-06T06:18:02;1.30;99.90
35796;DHT22;21916;52.428;13.302;2024-03-06T06:20:29;1.40;99.90
35796;DHT22;21916;52.428;13.302;2024-03-06T06:22:57;1.40;99.90
35796;DHT22;21916;52.428;13.302;2024-03-06T06:25:23;1.40;99.90
35796;DHT22;21916;52.428;13.302;2024-03-06T06:27:50;1.50;99.90
35796;DHT22;21916;52.428;13.302;2024-03-06T06:30:16;1.60;99.90
35796;DHT22;21916;52.428;13.302;2024-03-06T06:32:42;1.70;99.90
35796;DHT22;21916;52.428;13.302;2024-03-06T06:35:09;1.70;99.90
35796;DHT22;21916;52.428;13.302;2024-03-06T06:37:35;1.70;99.90
35796;DHT22;21916;52.428;13.302;2024-03-06T06:40:02;1.80;99.90
35796;DHT22;21916;52.428;13.302;2024-03-06T06:42:35;1.90;99.90
35796;DHT22;21916;52.428;13.302;2024-03-06T06:45:01;2.10;99.90
35796;DHT22;21916;52.428;13.302;2024-03-06T06:47:28;2.20;99.90
35796;DHT22;21916;52.428;13.302;2024-03-06T06:49:54;2.20;99.90
35796;DHT22;21916;52.428;13.302;2024-03-06T06:52:20;2.30;99.90
35796;DHT22;21916;52.428;13.302;2024-03-06T06:54:45;2.20;99.90
35796;DHT22;21916;52.428;13.302;2024-03-06T06:57:11;2.30;99.90
35796;DHT22;21916;52.428;13.302;2024-03-06T06:59:37;2.50;99.90
35796;DHT22;21916;52.428;13.302;2024-03-06T07:02:03;2.60;99.90
35796;DHT22;21916;52.428;13.302;2024-03-06T07:04:28;2.50;99.90
35796;DHT22;21916;52.428;13.302;2024-03-06T07:06:54;2.60;99.90
35796;DHT22;21916;52.428;13.302;2024-03-06T07:09:20;2.70;99.90
35796;DHT22;21916;52.428;13.302;2024-03-06T07:11:46;2.70;99.90
35796;DHT22;21916;52.428;13.302;2024-03-06T07:14:14;2.70;99.90
35796;DHT22;21916;52.428;13.302;2024-03-06T07:16:50;2.80;99.90
35796;DHT22;21916;52.428;13.302;2024-03-06T07:19:15;2.70;99.90
35796;DHT22;21916;52.428;13.302;2024-03-06T07:21:42;2.70;99.90
35796;DHT22;21916;52.428;13.302;2024-03-06T07:24:08;2.70;99.90
35796;DHT22;21916;52.428;13.302;2024-03-06T07:26:34;2.80;99.90
35796;DHT22;21916;52.428;13.302;2024-03-06T07:29:00;2.80;99.90
35796;DHT22;21916;52.428;13.302;2024-03-06T07:31:26;2.70;99.90
35796;DHT22;21916;52.428;13.302;2024-03-06T07:33:52;2.80;99.90
35796;DHT22;21916;52.428;13.302;2024-03-06T07:36:19;3.00;99.90
35796;DHT22;21916;52.428;13.302;2024-03-06T07:38:44;3.10;99.90
35796;DHT22;21916;52.428;13.302;2024-03-06T07:41:10;3.00;99.90
35796;DHT22;21916;52.428;13.302;2024-03-06T07:43:36;3.10;99.90
35796;DHT22;21916;52.428;13.302;2024-03-06T07:46:04;3.10;99.90
35796;DHT22;21916;52.428;13.302;2024-03-06T07:48:37;3.20;99.90
35796;DHT22;21916;52.428;13.302;2024-03-06T07:51:02;3.30;99.90
35796;DHT22;21916;52.428;13.302;2024-03-06T07:53:28;3.40;99.90
35796;DHT22;21916;52.428;13.302;2024-03-06T07:55:54;3.50;99.90
35796;DHT22;21916;52.428;13.302;2024-03-06T07:58:19;3.70;99.90
35796;DHT22;21916;52.428;13.302;2024-03-06T08:00:47;3.80;99.90
35796;DHT22;21916;52.428;13.302;2024-03-06T08:03:12;4.00;99.90
35796;DHT22;21916;52.428;13.302;2024-03-06T08:05:39;3.90;99.90
35796;DHT22;21916;52.428;13.302;2024-03-06T08:08:05;4.10;99.90
35796;DHT22;21916;52.428;13.302;2024-03-06T08:10:30;4.20;99.90
35796;DHT22;21916;52.428;13.302;2024-03-06T08:12:56;4.30;99.90
35796;DHT22;21916;52.428;13.302;2024-03-06T08:15:23;4.50;99.90
35796;DHT22;21916;52.428;13.302;2024-03-06T08:17:49;4.70;99.90
35796;DHT22;21916;52.428;13.302;2024-03-06T08:20:15;4.80;99.90
35796;DHT22;21916;52.428;13.302;2024-03-06T08:22:42;4.90;99.90
35796;DHT22;21916;52.428;13.302;2024-03-06T08:25:09;5.20;99.90
35796;DHT22;21916;52.428;13.302;2024-03-06T08:27:36;5.30;99.90
35796;DHT22;21916;52.428;13.302;2024-03-06T08:30:06;5.50;99.90
35796;DHT22;21916;52.428;13.302;2024-03-06T08:32:33;5.70;99.90
35796;DHT22;21916;52.428;13.302;2024-03-06T08:35:04;5.80;99.90
35796;DHT22;21916;52.428;13.302;2024-03-06T08:37:33;5.80;99.90
35796;DHT22;21916;52.428;13.302;2024-03-06T08:40:02;5.90;99.90
35796;DHT22;21916;52.428;13.302;2024-03-06T08:42:28;6.00;99.90
35796;DHT22;21916;52.428;13.302;2024-03-06T08:44:54;6.20;99.90
35796;DHT22;21916;52.428;13.302;2024-03-06T08:47:20;6.30;99.90
35796;DHT22;21916;52.428;13.302;2024-03-06T08:49:45;6.50;99.90
35796;DHT22;21916;52.428;13.302;2024-03-06T08:52:12;6.80;99.90
35796;DHT22;21916;52.428;13.302;2024-03-06T08:54:39;6.90;99.90
35796;DHT22;21916;52.428;13.302;2024-03-06T08:57:07;7.00;99.90
35796;DHT22;21916;52.428;13.302;2024-03-06T08:59:37;6.90;99.90
35796;DHT22;21916;52.428;13.302;2024-03-06T09:02:13;7.00;99.90
35796;DHT22;21916;52.428;13.302;2024-03-06T09:04:43;7.10;99.90
35796;DHT22;21916;52.428;13.302;2024-03-06T09:07:09;7.10;99.90
35796;DHT22;21916;52.428;13.302;2024-03-06T09:09:35;7.10;99.90
35796;DHT22;21916;52.428;13.302;2024-03-06T09:12:03;7.40;99.90
35796;DHT22;21916;52.428;13.302;2024-03-06T09:14:31;7.50;99.90
35796;DHT22;21916;52.428;13.302;2024-03-06T09:16:57;7.60;99.90
35796;DHT22;21916;52.428;13.302;2024-03-06T09:19:23;7.60;99.90
35796;DHT22;21916;52.428;13.302;2024-03-06T09:21:48;7.80;99.90
35796;DHT22;21916;52.428;13.302;2024-03-06T09:24:14;7.90;99.90
35796;DHT22;21916;52.428;13.302;2024-03-06T09:26:40;8.00;99.90
35796;DHT22;21916;52.428;13.302;2024-03-06T09:29:05;7.90;99.90
35796;DHT22;21916;52.428;13.302;2024-03-06T09:31:31;8.00;99.90
35796;DHT22;21916;52.428;13.302;2024-03-06T09:33:57;8.00;99.90
35796;DHT22;21916;52.428;13.302;2024-03-06T09:36:23;8.00;99.90
35796;DHT22;21916;52.428;13.302;2024-03-06T09:38:49;8.20;99.90
35796;DHT22;21916;52.428;13.302;2024-03-06T09:41:15;8.40;99.90
35796;DHT22;21916;52.428;13.302;2024-03-06T09:43:40;8.40;99.90
35796;DHT22;21916;52.428;13.302;2024-03-06T09:46:09;8.60;99.90
35796;DHT22;21916;52.428;13.302;2024-03-06T09:48:35;8.50;99.90
35796;DHT22;21916;52.428;13.302;2024-03-06T09:51:02;8.60;99.90
35796;DHT22;21916;52.428;13.302;2024-03-06T09:53:28;8.40;99.90
35796;DHT22;21916;52.428;13.302;2024-03-06T09:55:56;8.40;99.90
35796;DHT22;21916;52.428;13.302;2024-03-06T09:58:23;8.60;99.90
35796;DHT22;21916;52.428;13.302;2024-03-06T10:00:50;8.90;99.90
35796;DHT22;21916;52.428;13.302;2024-03-06T10:03:16;9.10;99.90
35796;DHT22;21916;52.428;13.302;2024-03-06T10:05:42;9.30;99.90
35796;DHT22;21916;52.428;13.302;2024-03-06T10:08:09;9.60;99.90
35796;DHT22;21916;52.428;13.302;2024-03-06T10:10:35;9.80;99.90
35796;DHT22;21916;52.428;13.302;2024-03-06T10:13:02;9.90;99.90
35796;DHT22;21916;52.428;13.302;2024-03-06T10:15:28;10.10;99.90
35796;DHT22;21916;52.428;13.302;2024-03-06T10:18:14;10.20;99.90
35796;DHT22;21916;52.428;13.302;2024-03-06T10:20:40;10.30;99.90
35796;DHT22;21916;52.428;13.302;2024-03-06T10:23:09;10.30;99.90
35796;DHT22;21916;52.428;13.302;2024-03-06T10:25:35;10.50;99.90
35796;DHT22;21916;52.428;13.302;2024-03-06T10:28:09;10.60;99.90
35796;DHT22;21916;52.428;13.302;2024-03-06T10:30:37;10.70;99.90
35796;DHT22;21916;52.428;13.302;2024-03-06T10:33:06;10.90;99.90
35796;DHT22;21916;52.428;13.302;2024-03-06T10:35:32;11.20;99.90
35796;DHT22;21916;52.428;13.302;2024-03-06T10:38:00;11.10;99.90
35796;DHT22;21916;52.428;13.302;2024-03-06T10:40:34;11.20;99.90
35796;DHT22;21916;52.428;13.302;2024-03-06T10:43:01;11.40;99.90
35796;DHT22;21916;52.428;13.302;2024-03-06T10:45:55;11.80;99.90
35796;DHT22;21916;52.428;13.302;2024-03-06T10:48:23;12.30;99.90
35796;DHT22;21916;52.428;13.302;2024-03-06T10:50:50;12.50;99.60
35796;DHT22;21916;52.428;13.302;2024-03-06T10:53:18;12.80;98.90
35796;DHT22;21916;52.428;13.302;2024-03-06T10:55:44;13.10;98.00
35796;DHT22;21916;52.428;13.302;2024-03-06T10:58:10;13.20;97.80
35796;DHT22;21916;52.428;13.302;2024-03-06T11:00:41;13.30;97.40
35796;DHT22;21916;52.428;13.302;2024-03-06T11:03:07;13.00;97.30
35796;DHT22;21916;52.428;13.302;2024-03-06T11:05:37;13.00;96.80
35796;DHT22;21916;52.428;13.302;2024-03-06T11:08:15;13.10;97.20
35796;DHT22;21916;52.428;13.302;2024-03-06T11:10:43;13.40;96.80
35796;DHT22;21916;52.428;13.302;2024-03-06T11:13:21;13.40;96.50
35796;DHT22;21916;52.428;13.302;2024-03-06T11:15:49;13.10;96.20
35796;DHT22;21916;52.428;13.302;2024-03-06T11:24:14;11.80;97.50
35796;DHT22;21916;52.428;13.302;2024-03-06T11:26:46;11.60;98.10
35796;DHT22;21916;52.428;13.302;2024-03-06T11:29:16;11.50;98.50
35796;DHT22;21916;52.428;13.302;2024-03-06T11:32:00;13.00;97.50
35796;DHT22;21916;52.428;13.302;2024-03-06T11:34:26;15.80;95.20
35796;DHT22;21916;52.428;13.302;2024-03-06T11:36:57;18.30;92.10
35796;DHT22;21916;52.428;13.302;2024-03-06T11:39:23;20.50;85.50
35796;DHT22;21916;52.428;13.302;2024-03-06T11:41:50;22.00;78.50
35796;DHT22;21916;52.428;13.302;2024-03-06T11:44:20;21.30;73.60
35796;DHT22;21916;52.428;13.302;2024-03-06T11:46:48;20.20;73.80
35796;DHT22;21916;52.428;13.302;2024-03-06T11:49:21;18.70;76.50
35796;DHT22;21916;52.428;13.302;2024-03-06T11:51:50;17.60;78.70
35796;DHT22;21916;52.428;13.302;2024-03-06T11:54:16;16.40;81.50
35796;DHT22;21916;52.428;13.302;2024-03-06T11:56:48;15.40;83.90
35796;DHT22;21916;52.428;13.302;2024-03-06T11:59:13;14.70;86.10
35796;DHT22;21916;52.428;13.302;2024-03-06T12:01:41;14.30;87.90
35796;DHT22;21916;52.428;13.302;2024-03-06T12:04:07;15.90;86.80
35796;DHT22;21916;52.428;13.302;2024-03-06T12:06:33;17.70;81.40
35796;DHT22;21916;52.428;13.302;2024-03-06T12:08:59;19.50;78.20
35796;DHT22;21916;52.428;13.302;2024-03-06T12:11:25;20.90;73.50
35796;DHT22;21916;52.428;13.302;2024-03-06T12:13:53;22.30;72.00
35796;DHT22;21916;52.428;13.302;2024-03-06T12:16:19;24.10;67.60
35796;DHT22;21916;52.428;13.302;2024-03-06T12:18:45;23.70;66.30
35796;DHT22;21916;52.428;13.302;2024-03-06T12:21:11;22.00;66.00
35796;DHT22;21916;52.428;13.302;2024-03-06T12:23:39;20.30;69.20
35796;DHT22;21916;52.428;13.302;2024-03-06T12:26:09;19.10;71.30
35796;DHT22;21916;52.428;13.302;2024-03-06T12:28:39;17.40;73.60
35796;DHT22;21916;52.428;13.302;2024-03-06T12:31:06;17.10;75.80
35796;DHT22;21916;52.428;13.302;2024-03-06T12:33:33;18.60;74.40
35796;DHT22;21916;52.428;13.302;2024-03-06T12:36:03;20.80;69.80
35796;DHT22;21916;52.428;13.302;2024-03-06T12:38:30;22.80;67.80
35796;DHT22;21916;52.428;13.302;2024-03-06T12:40:55;23.90;64.10
35796;DHT22;21916;52.428;13.302;2024-03-06T12:43:21;24.10;62.10
35796;DHT22;21916;52.428;13.302;2024-03-06T12:45:47;23.30;62.50
35796;DHT22;21916;52.428;13.302;2024-03-06T12:48:12;21.40;63.00
35796;DHT22;21916;52.428;13.302;2024-03-06T12:50:38;20.40;65.50
35796;DHT22;21916;52.428;13.302;2024-03-06T12:53:04;18.80;66.70
35796;DHT22;21916;52.428;13.302;2024-03-06T12:55:32;17.80;70.00
35796;DHT22;21916;52.428;13.302;2024-03-06T12:57:58;17.50;69.90
35796;DHT22;21916;52.428;13.302;2024-03-06T13:00:24;17.00;70.80
35796;DHT22;21916;52.428;13.302;2024-03-06T13:02:50;18.00;71.40
35796;DHT22;21916;52.428;13.302;2024-03-06T13:05:16;18.60;69.20
35796;DHT22;21916;52.428;13.302;2024-03-06T13:07:45;18.20;68.90
35796;DHT22;21916;52.428;13.302;2024-03-06T13:10:11;17.90;68.80
35796;DHT22;21916;52.428;13.302;2024-03-06T13:12:40;19.10;69.10
35796;DHT22;21916;52.428;13.302;2024-03-06T13:15:06;20.40;65.90
35796;DHT22;21916;52.428;13.302;2024-03-06T13:17:35;20.70;65.30
35796;DHT22;21916;52.428;13.302;2024-03-06T13:20:01;19.70;65.50
35796;DHT22;21916;52.428;13.302;2024-03-06T13:22:27;17.80;67.80
35796;DHT22;21916;52.428;13.302;2024-03-06T13:24:53;16.40;70.90
35796;DHT22;21916;52.428;13.302;2024-03-06T13:27:18;15.00;73.60
35796;DHT22;21916;52.428;13.302;2024-03-06T13:29:44;14.20;75.60
35796;DHT22;21916;52.428;13.302;2024-03-06T13:32:10;13.80;77.50
35796;DHT22;21916;52.428;13.302;2024-03-06T13:34:35;13.50;79.10
35796;DHT22;21916;52.428;13.302;2024-03-06T13:37:01;13.30;80.00
35796;DHT22;21916;52.428;13.302;2024-03-06T13:39:27;13.00;81.10
35796;DHT22;21916;52.428;13.302;2024-03-06T13:41:52;12.70;82.50
35796;DHT22;21916;52.428;13.302;2024-03-06T13:44:18;12.70;83.20
35796;DHT22;21916;52.428;13.302;2024-03-06T13:46:44;12.60;84.40
35796;DHT22;21916;52.428;13.302;2024-03-06T13:51:58;12.50;85.00
35796;DHT22;21916;52.428;13.302;2024-03-06T13:54:24;11.90;86.50
35796;DHT22;21916;52.428;13.302;2024-03-06T13:56:50;11.70;89.00
35796;DHT22;21916;52.428;13.302;2024-03-06T13:59:16;11.70;88.90
35796;DHT22;21916;52.428;13.302;2024-03-06T14:01:42;11.40;89.70
35796;DHT22;21916;52.428;13.302;2024-03-06T14:04:08;11.40;89.70
35796;DHT22;21916;52.428;13.302;2024-03-06T14:06:33;11.40;89.60
35796;DHT22;21916;52.428;13.302;2024-03-06T14:08:59;11.30;89.80
35796;DHT22;21916;52.428;13.302;2024-03-06T14:11:25;11.40;89.60
35796;DHT22;21916;52.428;13.302;2024-03-06T14:13:51;11.20;89.50
35796;DHT22;21916;52.428;13.302;2024-03-06T14:16:17;10.90;90.20
35796;DHT22;21916;52.428;13.302;2024-03-06T14:18:42;10.60;90.70
35796;DHT22;21916;52.428;13.302;2024-03-06T14:21:08;10.40;91.60
35796;DHT22;21916;52.428;13.302;2024-03-06T14:23:33;10.50;91.80
35796;DHT22;21916;52.428;13.302;2024-03-06T14:26:00;10.60;91.90
35796;DHT22;21916;52.428;13.302;2024-03-06T14:28:27;10.70;92.10
35796;DHT22;21916;52.428;13.302;2024-03-06T14:30:53;10.50;92.50
35796;DHT22;21916;52.428;13.302;2024-03-06T14:33:19;10.60;92.30
35796;DHT22;21916;52.428;13.302;2024-03-06T14:35:44;10.70;92.60
35796;DHT22;21916;52.428;13.302;2024-03-06T14:38:11;10.60;92.40
35796;DHT22;21916;52.428;13.302;2024-03-06T14:40:38;10.60;92.40
35796;DHT22;21916;52.428;13.302;2024-03-06T14:43:04;10.60;92.20
35796;DHT22;21916;52.428;13.302;2024-03-06T14:45:34;10.40;92.50
35796;DHT22;21916;52.428;13.302;2024-03-06T14:48:00;10.30;92.20
35796;DHT22;21916;52.428;13.302;2024-03-06T14:50:25;10.20;92.50
35796;DHT22;21916;52.428;13.302;2024-03-06T14:52:52;10.30;92.50
35796;DHT22;21916;52.428;13.302;2024-03-06T14:55:18;10.40;92.10
35796;DHT22;21916;52.428;13.302;2024-03-06T14:57:44;10.10;91.80
35796;DHT22;21916;52.428;13.302;2024-03-06T15:00:10;10.30;91.80
35796;DHT22;21916;52.428;13.302;2024-03-06T15:02:37;10.20;91.30
35796;DHT22;21916;52.428;13.302;2024-03-06T15:05:03;10.00;92.00
35796;DHT22;21916;52.428;13.302;2024-03-06T15:07:29;10.10;91.90
35796;DHT22;21916;52.428;13.302;2024-03-06T15:09:55;10.10;92.10
35796;DHT22;21916;52.428;13.302;2024-03-06T15:12:23;10.10;92.30
35796;DHT22;21916;52.428;13.302;2024-03-06T15:14:48;10.20;92.60
35796;DHT22;21916;52.428;13.302;2024-03-06T15:17:14;10.10;92.40
35796;DHT22;21916;52.428;13.302;2024-03-06T15:19:40;10.10;92.80
35796;DHT22;21916;52.428;13.302;2024-03-06T15:22:05;10.00;92.90
35796;DHT22;21916;52.428;13.302;2024-03-06T15:24:31;9.80;93.30
35796;DHT22;21916;52.428;13.302;2024-03-06T15:26:57;9.80;93.20
35796;DHT22;21916;52.428;13.302;2024-03-06T15:29:23;10.00;93.20
35796;DHT22;21916;52.428;13.302;2024-03-06T15:31:49;10.00;92.70